sensor_id;sensor_type;location;lat;lon;timestamp;temperature;humidity
38428;DHT22;24211;49.980;19.776;2023-07-20T00:02:08;24.40;88.90
38428;DHT22;24211;49.980;19.776;2023-07-20T00:04:35;24.30;88.90
38428;DHT22;24211;49.980;19.776;2023-07-20T00:07:03;24.30;88.90
38428;DHT22;24211;49.980;19.776;2023-07-20T00:09:31;24.30;89.00
38428;DHT22;24211;49.980;19.776;2023-07-20T00:11:58;24.20;89.00
38428;DHT22;24211;49.980;19.776;2023-07-20T00:14:27;24.20;89.10
38428;DHT22;24211;49.980;19.776;2023-07-20T00:16:56;24.10;89.20
38428;DHT22;24211;49.980;19.776;2023-07-20T00:19:27;24.00;89.40
38428;DHT22;24211;49.980;19.776;2023-07-20T00:21:55;24.00;89.50
38428;DHT22;24211;49.980;19.776;2023-07-20T00:24:23;24.00;89.40
38428;DHT22;24211;49.980;19.776;2023-07-20T00:26:50;23.90;89.50
38428;DHT22;24211;49.980;19.776;2023-07-20T00:29:18;23.90;89.70
38428;DHT22;24211;49.980;19.776;2023-07-20T00:31:46;23.80;89.90
38428;DHT22;24211;49.980;19.776;2023-07-20T00:34:15;23.80;90.00
38428;DHT22;24211;49.980;19.776;2023-07-20T00:36:42;23.80;90.00
38428;DHT22;24211;49.980;19.776;2023-07-20T00:39:09;23.70;90.00
38428;DHT22;24211;49.980;19.776;2023-07-20T00:41:36;23.70;90.10
38428;DHT22;24211;49.980;19.776;2023-07-20T00:44:05;23.60;90.10
38428;DHT22;24211;49.980;19.776;2023-07-20T00:46:32;23.60;90.10
38428;DHT22;24211;49.980;19.776;2023-07-20T00:49:00;23.50;90.20
38428;DHT22;24211;49.980;19.776;2023-07-20T00:51:28;23.50;90.30
38428;DHT22;24211;49.980;19.776;2023-07-20T00:53:56;23.50;90.30
38428;DHT22;24211;49.980;19.776;2023-07-20T00:56:23;23.40;90.30
38428;DHT22;24211;49.980;19.776;2023-07-20T00:58:52;23.40;90.40
38428;DHT22;24211;49.980;19.776;2023-07-20T01:01:21;23.40;90.40
38428;DHT22;24211;49.980;19.776;2023-07-20T01:03:49;23.30;90.40
38428;DHT22;24211;49.980;19.776;2023-07-20T01:06:25;23.30;90.40
38428;DHT22;24211;49.980;19.776;2023-07-20T01:09:19;23.20;90.60
38428;DHT22;24211;49.980;19.776;2023-07-20T01:14:40;23.10;90.90
38428;DHT22;24211;49.980;19.776;2023-07-20T01:17:07;23.00;91.00
38428;DHT22;24211;49.980;19.776;2023-07-20T01:19:34;22.90;91.70
38428;DHT22;24211;49.980;19.776;2023-07-20T01:31:32;22.10;96.70
38428;DHT22;24211;49.980;19.776;2023-07-20T01:34:02;21.90;97.40
38428;DHT22;24211;49.980;19.776;2023-07-20T01:36:35;22.00;97.30
38428;DHT22;24211;49.980;19.776;2023-07-20T01:39:04;22.10;97.00
38428;DHT22;24211;49.980;19.776;2023-07-20T01:41:33;22.20;96.50
38428;DHT22;24211;49.980;19.776;2023-07-20T01:44:03;22.30;96.20
38428;DHT22;24211;49.980;19.776;2023-07-20T01:46:31;22.40;95.90
38428;DHT22;24211;49.980;19.776;2023-07-20T01:48:58;22.40;95.80
38428;DHT22;24211;49.980;19.776;2023-07-20T01:51:26;22.40;95.90
38428;DHT22;24211;49.980;19.776;2023-07-20T01:53:53;22.40;96.30
38428;DHT22;24211;49.980;19.776;2023-07-20T01:56:20;22.30;96.50
38428;DHT22;24211;49.980;19.776;2023-07-20T01:58:48;22.30;96.60
38428;DHT22;24211;49.980;19.776;2023-07-20T02:01:15;22.30;96.40
38428;DHT22;24211;49.980;19.776;2023-07-20T02:03:42;22.30;96.20
38428;DHT22;24211;49.980;19.776;2023-07-20T02:06:10;22.40;96.10
38428;DHT22;24211;49.980;19.776;2023-07-20T02:08:37;22.40;95.90
38428;DHT22;24211;49.980;19.776;2023-07-20T02:11:04;22.40;95.80
38428;DHT22;24211;49.980;19.776;2023-07-20T02:13:31;22.40;95.80
38428;DHT22;24211;49.980;19.776;2023-07-20T02:15:58;22.40;95.80
38428;DHT22;24211;49.980;19.776;2023-07-20T02:18:26;22.40;95.90
38428;DHT22;24211;49.980;19.776;2023-07-20T02:20:53;22.30;96.00
38428;DHT22;24211;49.980;19.776;2023-07-20T02:23:21;22.30;96.00
38428;DHT22;24211;49.980;19.776;2023-07-20T02:25:48;22.30;96.00
38428;DHT22;24211;49.980;19.776;2023-07-20T02:28:15;22.30;96.10
38428;DHT22;24211;49.980;19.776;2023-07-20T02:30:43;22.20;96.10
38428;DHT22;24211;49.980;19.776;2023-07-20T02:33:10;22.20;96.10
38428;DHT22;24211;49.980;19.776;2023-07-20T02:35:37;22.20;96.20
38428;DHT22;24211;49.980;19.776;2023-07-20T02:38:04;22.20;96.40
38428;DHT22;24211;49.980;19.776;2023-07-20T02:40:32;22.10;96.50
38428;DHT22;24211;49.980;19.776;2023-07-20T02:42:59;22.10;96.40
38428;DHT22;24211;49.980;19.776;2023-07-20T02:45:27;22.10;96.50
38428;DHT22;24211;49.980;19.776;2023-07-20T02:47:54;22.10;96.60
38428;DHT22;24211;49.980;19.776;2023-07-20T02:50:22;22.00;96.70
38428;DHT22;24211;49.980;19.776;2023-07-20T02:52:49;22.00;96.80
38428;DHT22;24211;49.980;19.776;2023-07-20T02:55:17;22.00;96.80
38428;DHT22;24211;49.980;19.776;2023-07-20T02:57:44;22.00;97.00
38428;DHT22;24211;49.980;19.776;2023-07-20T03:00:12;21.90;97.00
38428;DHT22;24211;49.980;19.776;2023-07-20T03:02:42;21.90;97.10
38428;DHT22;24211;49.980;19.776;2023-07-20T03:05:10;21.90;97.10
38428;DHT22;24211;49.980;19.776;2023-07-20T03:07:37;21.80;97.20
38428;DHT22;24211;49.980;19.776;2023-07-20T03:10:05;21.80;97.40
38428;DHT22;24211;49.980;19.776;2023-07-20T03:12:36;21.80;97.60
38428;DHT22;24211;49.980;19.776;2023-07-20T03:15:03;21.70;97.70
38428;DHT22;24211;49.980;19.776;2023-07-20T03:17:31;21.70;97.80
38428;DHT22;24211;49.980;19.776;2023-07-20T03:19:59;21.70;97.90
38428;DHT22;24211;49.980;19.776;2023-07-20T03:22:28;21.70;98.00
38428;DHT22;24211;49.980;19.776;2023-07-20T03:24:56;21.70;98.00
38428;DHT22;24211;49.980;19.776;2023-07-20T03:27:23;21.70;98.30
38428;DHT22;24211;49.980;19.776;2023-07-20T03:29:51;21.60;98.10
38428;DHT22;24211;49.980;19.776;2023-07-20T03:32:18;21.60;98.40
38428;DHT22;24211;49.980;19.776;2023-07-20T03:34:45;21.60;98.60
38428;DHT22;24211;49.980;19.776;2023-07-20T03:37:14;21.50;98.80
38428;DHT22;24211;49.980;19.776;2023-07-20T03:39:41;21.50;99.00
38428;DHT22;24211;49.980;19.776;2023-07-20T03:42:08;21.50;99.00
38428;DHT22;24211;49.980;19.776;2023-07-20T03:44:36;21.40;99.20
38428;DHT22;24211;49.980;19.776;2023-07-20T03:47:03;21.40;99.30
38428;DHT22;24211;49.980;19.776;2023-07-20T03:49:32;21.40;99.30
38428;DHT22;24211;49.980;19.776;2023-07-20T03:51:59;21.40;99.40
38428;DHT22;24211;49.980;19.776;2023-07-20T03:54:26;21.40;99.50
38428;DHT22;24211;49.980;19.776;2023-07-20T05:24:13;21.50;99.90
38428;DHT22;24211;49.980;19.776;2023-07-20T05:26:42;21.60;99.90
38428;DHT22;24211;49.980;19.776;2023-07-20T05:29:09;21.60;99.90
38428;DHT22;24211;49.980;19.776;2023-07-20T05:31:36;21.70;99.90
38428;DHT22;24211;49.980;19.776;2023-07-20T05:34:03;21.80;99.90
38428;DHT22;24211;49.980;19.776;2023-07-20T05:36:30;22.00;99.90
38428;DHT22;24211;49.980;19.776;2023-07-20T05:38:57;22.10;99.90
38428;DHT22;24211;49.980;19.776;2023-07-20T05:41:25;22.20;99.90
38428;DHT22;24211;49.980;19.776;2023-07-20T05:43:52;22.40;99.90
38428;DHT22;24211;49.980;19.776;2023-07-20T05:46:19;22.50;99.90
38428;DHT22;24211;49.980;19.776;2023-07-20T05:48:47;22.60;99.90
38428;DHT22;24211;49.980;19.776;2023-07-20T05:51:15;22.70;99.90
38428;DHT22;24211;49.980;19.776;2023-07-20T05:53:42;22.80;99.90
38428;DHT22;24211;49.980;19.776;2023-07-20T05:56:09;22.90;99.90
38428;DHT22;24211;49.980;19.776;2023-07-20T05:58:37;23.00;99.90
38428;DHT22;24211;49.980;19.776;2023-07-20T06:01:04;23.10;99.90
38428;DHT22;24211;49.980;19.776;2023-07-20T06:03:33;23.20;99.90
38428;DHT22;24211;49.980;19.776;2023-07-20T06:06:01;23.40;99.90
38428;DHT22;24211;49.980;19.776;2023-07-20T06:08:29;23.60;99.90
38428;DHT22;24211;49.980;19.776;2023-07-20T06:10:57;23.60;99.90
38428;DHT22;24211;49.980;19.776;2023-07-20T06:13:24;23.60;99.90
38428;DHT22;24211;49.980;19.776;2023-07-20T06:15:52;23.70;99.90
38428;DHT22;24211;49.980;19.776;2023-07-20T06:18:20;23.80;99.90
38428;DHT22;24211;49.980;19.776;2023-07-20T06:20:50;24.00;99.90
38428;DHT22;24211;49.980;19.776;2023-07-20T06:23:20;24.10;99.90
38428;DHT22;24211;49.980;19.776;2023-07-20T06:25:48;24.30;99.80
38428;DHT22;24211;49.980;19.776;2023-07-20T06:28:15;24.50;99.70
38428;DHT22;24211;49.980;19.776;2023-07-20T06:30:43;24.60;99.50
38428;DHT22;24211;49.980;19.776;2023-07-20T06:33:10;24.60;99.40
38428;DHT22;24211;49.980;19.776;2023-07-20T06:35:41;24.60;99.40
38428;DHT22;24211;49.980;19.776;2023-07-20T06:38:10;24.60;99.30
38428;DHT22;24211;49.980;19.776;2023-07-20T06:40:40;24.70;99.20
38428;DHT22;24211;49.980;19.776;2023-07-20T06:43:07;24.80;99.00
38428;DHT22;24211;49.980;19.776;2023-07-20T06:45:37;24.80;98.90
38428;DHT22;24211;49.980;19.776;2023-07-20T06:48:04;24.80;98.80
38428;DHT22;24211;49.980;19.776;2023-07-20T06:50:31;24.70;98.80
38428;DHT22;24211;49.980;19.776;2023-07-20T06:53:03;24.70;98.70
38428;DHT22;24211;49.980;19.776;2023-07-20T06:55:31;24.70;98.60
38428;DHT22;24211;49.980;19.776;2023-07-20T06:58:07;24.70;98.50
38428;DHT22;24211;49.980;19.776;2023-07-20T07:00:34;24.70;98.50
38428;DHT22;24211;49.980;19.776;2023-07-20T07:03:01;24.90;98.40
38428;DHT22;24211;49.980;19.776;2023-07-20T07:05:30;25.20;97.90
38428;DHT22;24211;49.980;19.776;2023-07-20T07:08:01;25.50;97.70
38428;DHT22;24211;49.980;19.776;2023-07-20T07:10:29;25.60;97.20
38428;DHT22;24211;49.980;19.776;2023-07-20T07:12:56;25.60;97.00
38428;DHT22;24211;49.980;19.776;2023-07-20T07:15:23;25.60;97.10
38428;DHT22;24211;49.980;19.776;2023-07-20T07:17:50;25.80;97.20
38428;DHT22;24211;49.980;19.776;2023-07-20T07:20:18;25.80;97.10
38428;DHT22;24211;49.980;19.776;2023-07-20T07:22:49;26.10;97.00
38428;DHT22;24211;49.980;19.776;2023-07-20T07:25:22;26.40;96.50
38428;DHT22;24211;49.980;19.776;2023-07-20T07:27:51;26.60;96.40
38428;DHT22;24211;49.980;19.776;2023-07-20T07:30:20;26.50;96.40
38428;DHT22;24211;49.980;19.776;2023-07-20T07:32:47;26.40;96.60
38428;DHT22;24211;49.980;19.776;2023-07-20T07:35:15;26.40;96.40
38428;DHT22;24211;49.980;19.776;2023-07-20T07:37:42;26.40;96.40
38428;DHT22;24211;49.980;19.776;2023-07-20T07:40:29;26.20;96.50
38428;DHT22;24211;49.980;19.776;2023-07-20T07:42:56;26.60;96.40
38428;DHT22;24211;49.980;19.776;2023-07-20T07:45:23;26.80;95.90
38428;DHT22;24211;49.980;19.776;2023-07-20T07:47:50;26.60;95.70
38428;DHT22;24211;49.980;19.776;2023-07-20T07:50:18;26.40;95.80
38428;DHT22;24211;49.980;19.776;2023-07-20T07:52:45;26.30;95.90
38428;DHT22;24211;49.980;19.776;2023-07-20T07:55:13;26.40;96.20
38428;DHT22;24211;49.980;19.776;2023-07-20T07:57:42;26.40;95.80
38428;DHT22;24211;49.980;19.776;2023-07-20T08:00:10;26.50;95.80
38428;DHT22;24211;49.980;19.776;2023-07-20T08:02:41;26.50;95.70
38428;DHT22;24211;49.980;19.776;2023-07-20T08:05:09;26.50;95.70
38428;DHT22;24211;49.980;19.776;2023-07-20T08:07:37;26.70;95.50
38428;DHT22;24211;49.980;19.776;2023-07-20T08:10:05;26.80;95.30
38428;DHT22;24211;49.980;19.776;2023-07-20T08:12:32;27.00;95.20
38428;DHT22;24211;49.980;19.776;2023-07-20T08:15:00;27.30;95.00
38428;DHT22;24211;49.980;19.776;2023-07-20T08:17:27;27.60;94.80
38428;DHT22;24211;49.980;19.776;2023-07-20T08:19:55;27.60;94.60
38428;DHT22;24211;49.980;19.776;2023-07-20T08:22:22;27.50;94.70
38428;DHT22;24211;49.980;19.776;2023-07-20T08:24:49;27.60;94.60
38428;DHT22;24211;49.980;19.776;2023-07-20T08:27:17;27.50;94.50
38428;DHT22;24211;49.980;19.776;2023-07-20T08:29:44;27.50;94.40
38428;DHT22;24211;49.980;19.776;2023-07-20T08:32:11;27.50;94.40
38428;DHT22;24211;49.980;19.776;2023-07-20T08:34:42;27.40;94.40
38428;DHT22;24211;49.980;19.776;2023-07-20T08:37:09;27.20;94.40
38428;DHT22;24211;49.980;19.776;2023-07-20T08:39:39;27.30;94.30
38428;DHT22;24211;49.980;19.776;2023-07-20T08:42:06;27.40;94.30
38428;DHT22;24211;49.980;19.776;2023-07-20T08:44:35;27.40;94.10
38428;DHT22;24211;49.980;19.776;2023-07-20T08:47:06;27.40;94.20
38428;DHT22;24211;49.980;19.776;2023-07-20T08:49:34;27.60;94.10
38428;DHT22;24211;49.980;19.776;2023-07-20T08:52:03;27.80;93.90
38428;DHT22;24211;49.980;19.776;2023-07-20T08:54:31;27.80;93.80
38428;DHT22;24211;49.980;19.776;2023-07-20T08:57:04;27.80;93.70
38428;DHT22;24211;49.980;19.776;2023-07-20T08:59:34;27.70;93.40
38428;DHT22;24211;49.980;19.776;2023-07-20T09:02:04;27.60;93.40
38428;DHT22;24211;49.980;19.776;2023-07-20T09:04:33;27.80;93.20
38428;DHT22;24211;49.980;19.776;2023-07-20T09:07:02;28.10;93.10
38428;DHT22;24211;49.980;19.776;2023-07-20T09:09:29;28.20;93.00
38428;DHT22;24211;49.980;19.776;2023-07-20T09:11:57;28.50;92.80
38428;DHT22;24211;49.980;19.776;2023-07-20T09:14:24;28.80;92.40
38428;DHT22;24211;49.980;19.776;2023-07-20T09:16:54;28.70;92.00
38428;DHT22;24211;49.980;19.776;2023-07-20T09:19:22;28.70;92.10
38428;DHT22;24211;49.980;19.776;2023-07-20T09:21:51;28.80;91.80
38428;DHT22;24211;49.980;19.776;2023-07-20T09:24:19;29.10;91.50
38428;DHT22;24211;49.980;19.776;2023-07-20T09:26:48;29.20;91.30
38428;DHT22;24211;49.980;19.776;2023-07-20T09:29:20;29.30;91.10
38428;DHT22;24211;49.980;19.776;2023-07-20T09:32:01;29.10;91.20
38428;DHT22;24211;49.980;19.776;2023-07-20T09:34:31;29.20;91.20
38428;DHT22;24211;49.980;19.776;2023-07-20T09:37:02;29.40;91.10
38428;DHT22;24211;49.980;19.776;2023-07-20T09:39:31;29.50;91.00
38428;DHT22;24211;49.980;19.776;2023-07-20T09:42:01;29.80;90.90
38428;DHT22;24211;49.980;19.776;2023-07-20T09:44:32;30.10;90.40
38428;DHT22;24211;49.980;19.776;2023-07-20T09:47:03;30.00;90.10
38428;DHT22;24211;49.980;19.776;2023-07-20T09:49:32;30.00;90.10
38428;DHT22;24211;49.980;19.776;2023-07-20T09:52:19;30.20;89.90
38428;DHT22;24211;49.980;19.776;2023-07-20T09:54:51;30.30;89.60
38428;DHT22;24211;49.980;19.776;2023-07-20T09:57:21;30.30;89.30
38428;DHT22;24211;49.980;19.776;2023-07-20T09:59:48;30.30;88.60
38428;DHT22;24211;49.980;19.776;2023-07-20T10:02:33;30.30;88.30
38428;DHT22;24211;49.980;19.776;2023-07-20T10:05:04;30.40;88.30
38428;DHT22;24211;49.980;19.776;2023-07-20T10:07:33;30.50;88.40
38428;DHT22;24211;49.980;19.776;2023-07-20T10:10:06;30.50;87.70
38428;DHT22;24211;49.980;19.776;2023-07-20T10:12:39;30.20;87.70
38428;DHT22;24211;49.980;19.776;2023-07-20T10:18:14;30.20;87.90
38428;DHT22;24211;49.980;19.776;2023-07-20T10:20:49;30.00;87.80
38428;DHT22;24211;49.980;19.776;2023-07-20T10:23:22;29.90;87.90
38428;DHT22;24211;49.980;19.776;2023-07-20T10:25:51;30.00;87.60
38428;DHT22;24211;49.980;19.776;2023-07-20T10:28:18;30.00;87.80
38428;DHT22;24211;49.980;19.776;2023-07-20T10:30:46;30.10;87.60
38428;DHT22;24211;49.980;19.776;2023-07-20T10:33:14;30.30;87.40
38428;DHT22;24211;49.980;19.776;2023-07-20T10:35:57;30.60;87.30
38428;DHT22;24211;49.980;19.776;2023-07-20T10:41:27;31.00;85.90
38428;DHT22;24211;49.980;19.776;2023-07-20T10:46:43;31.30;85.80
38428;DHT22;24211;49.980;19.776;2023-07-20T10:49:15;31.70;85.50
38428;DHT22;24211;49.980;19.776;2023-07-20T10:51:50;31.80;85.10
38428;DHT22;24211;49.980;19.776;2023-07-20T10:56:51;32.10;85.00
38428;DHT22;24211;49.980;19.776;2023-07-20T11:01:49;32.20;83.80
38428;DHT22;24211;49.980;19.776;2023-07-20T11:04:17;32.20;83.30
38428;DHT22;24211;49.980;19.776;2023-07-20T11:06:55;32.20;83.10
38428;DHT22;24211;49.980;19.776;2023-07-20T11:09:23;32.20;83.30
38428;DHT22;24211;49.980;19.776;2023-07-20T11:12:15;32.30;83.40
38428;DHT22;24211;49.980;19.776;2023-07-20T11:14:54;32.30;83.10
38428;DHT22;24211;49.980;19.776;2023-07-20T11:17:30;32.20;82.60
38428;DHT22;24211;49.980;19.776;2023-07-20T11:20:00;32.20;82.80
38428;DHT22;24211;49.980;19.776;2023-07-20T11:22:32;32.20;82.20
38428;DHT22;24211;49.980;19.776;2023-07-20T11:25:00;32.00;81.90
38428;DHT22;24211;49.980;19.776;2023-07-20T11:27:28;31.80;81.90
38428;DHT22;24211;49.980;19.776;2023-07-20T11:29:56;31.70;81.80
38428;DHT22;24211;49.980;19.776;2023-07-20T11:32:24;31.60;82.30
38428;DHT22;24211;49.980;19.776;2023-07-20T11:34:52;31.60;82.50
38428;DHT22;24211;49.980;19.776;2023-07-20T11:37:19;31.40;82.30
38428;DHT22;24211;49.980;19.776;2023-07-20T11:39:46;31.10;82.60
38428;DHT22;24211;49.980;19.776;2023-07-20T11:42:15;30.80;82.90
38428;DHT22;24211;49.980;19.776;2023-07-20T11:44:45;30.90;83.00
38428;DHT22;24211;49.980;19.776;2023-07-20T11:47:13;31.10;82.90
38428;DHT22;24211;49.980;19.776;2023-07-20T11:49:43;31.40;83.00
38428;DHT22;24211;49.980;19.776;2023-07-20T11:52:16;31.70;82.50
38428;DHT22;24211;49.980;19.776;2023-07-20T11:54:45;32.10;82.50
38428;DHT22;24211;49.980;19.776;2023-07-20T11:57:22;32.30;81.70
38428;DHT22;24211;49.980;19.776;2023-07-20T11:59:53;32.20;81.30
38428;DHT22;24211;49.980;19.776;2023-07-20T12:02:26;32.10;81.40
38428;DHT22;24211;49.980;19.776;2023-07-20T12:04:56;32.00;81.70
38428;DHT22;24211;49.980;19.776;2023-07-20T12:07:28;31.80;81.30
38428;DHT22;24211;49.980;19.776;2023-07-20T12:10:06;31.70;81.70
38428;DHT22;24211;49.980;19.776;2023-07-20T12:12:43;31.40;81.60
38428;DHT22;24211;49.980;19.776;2023-07-20T12:15:32;31.30;80.70
38428;DHT22;24211;49.980;19.776;2023-07-20T12:18:01;31.30;80.50
38428;DHT22;24211;49.980;19.776;2023-07-20T12:20:31;31.50;80.90
38428;DHT22;24211;49.980;19.776;2023-07-20T12:23:02;31.70;79.60
38428;DHT22;24211;49.980;19.776;2023-07-20T12:25:45;32.00;78.90
38428;DHT22;24211;49.980;19.776;2023-07-20T12:28:16;32.10;78.70
38428;DHT22;24211;49.980;19.776;2023-07-20T12:30:45;32.40;78.20
38428;DHT22;24211;49.980;19.776;2023-07-20T12:33:13;32.50;77.90
38428;DHT22;24211;49.980;19.776;2023-07-20T12:35:44;32.40;78.00
38428;DHT22;24211;49.980;19.776;2023-07-20T12:38:11;32.60;78.40
38428;DHT22;24211;49.980;19.776;2023-07-20T12:40:39;32.70;78.80
38428;DHT22;24211;49.980;19.776;2023-07-20T12:43:07;32.90;78.40
38428;DHT22;24211;49.980;19.776;2023-07-20T12:45:35;33.00;78.10
38428;DHT22;24211;49.980;19.776;2023-07-20T12:48:02;33.20;77.90
38428;DHT22;24211;49.980;19.776;2023-07-20T12:50:30;33.40;78.10
38428;DHT22;24211;49.980;19.776;2023-07-20T12:52:57;33.70;78.00
38428;DHT22;24211;49.980;19.776;2023-07-20T12:55:24;33.70;78.20
38428;DHT22;24211;49.980;19.776;2023-07-20T12:57:51;34.20;76.60
38428;DHT22;24211;49.980;19.776;2023-07-20T13:00:19;34.40;75.10
38428;DHT22;24211;49.980;19.776;2023-07-20T13:02:46;34.40;74.20
38428;DHT22;24211;49.980;19.776;2023-07-20T13:05:14;34.30;74.50
38428;DHT22;24211;49.980;19.776;2023-07-20T13:07:42;34.20;74.90
38428;DHT22;24211;49.980;19.776;2023-07-20T13:10:12;34.30;74.80
38428;DHT22;24211;49.980;19.776;2023-07-20T13:12:40;34.50;74.70
38428;DHT22;24211;49.980;19.776;2023-07-20T13:15:08;34.60;75.00
38428;DHT22;24211;49.980;19.776;2023-07-20T13:17:38;34.60;75.50
38428;DHT22;24211;49.980;19.776;2023-07-20T13:20:08;35.20;73.70
38428;DHT22;24211;49.980;19.776;2023-07-20T13:22:38;35.50;72.40
38428;DHT22;24211;49.980;19.776;2023-07-20T13:25:07;35.60;71.80
38428;DHT22;24211;49.980;19.776;2023-07-20T13:27:34;35.70;71.30
38428;DHT22;24211;49.980;19.776;2023-07-20T13:30:05;35.60;71.50
38428;DHT22;24211;49.980;19.776;2023-07-20T13:32:36;35.90;70.50
38428;DHT22;24211;49.980;19.776;2023-07-20T13:35:04;35.80;70.30
38428;DHT22;24211;49.980;19.776;2023-07-20T13:37:32;35.70;69.90
38428;DHT22;24211;49.980;19.776;2023-07-20T13:40:00;35.40;69.90
38428;DHT22;24211;49.980;19.776;2023-07-20T13:42:28;35.00;70.20
38428;DHT22;24211;49.980;19.776;2023-07-20T13:44:56;34.80;71.00
38428;DHT22;24211;49.980;19.776;2023-07-20T13:47:23;34.80;70.60
38428;DHT22;24211;49.980;19.776;2023-07-20T13:49:50;34.80;70.30
38428;DHT22;24211;49.980;19.776;2023-07-20T13:52:30;34.80;70.40
38428;DHT22;24211;49.980;19.776;2023-07-20T13:55:01;34.80;70.00
38428;DHT22;24211;49.980;19.776;2023-07-20T13:57:31;34.90;69.70
38428;DHT22;24211;49.980;19.776;2023-07-20T14:00:03;35.00;69.70
38428;DHT22;24211;49.980;19.776;2023-07-20T14:02:37;34.90;69.80
38428;DHT22;24211;49.980;19.776;2023-07-20T14:05:08;34.90;69.90
38428;DHT22;24211;49.980;19.776;2023-07-20T14:07:39;34.70;69.80
38428;DHT22;24211;49.980;19.776;2023-07-20T14:10:07;34.60;70.10
38428;DHT22;24211;49.980;19.776;2023-07-20T14:12:37;34.60;69.80
38428;DHT22;24211;49.980;19.776;2023-07-20T14:15:05;34.50;69.20
38428;DHT22;24211;49.980;19.776;2023-07-20T14:17:33;34.50;68.70
38428;DHT22;24211;49.980;19.776;2023-07-20T14:20:01;34.60;68.50
38428;DHT22;24211;49.980;19.776;2023-07-20T14:22:28;34.60;69.30
38428;DHT22;24211;49.980;19.776;2023-07-20T14:24:56;34.80;69.00
38428;DHT22;24211;49.980;19.776;2023-07-20T14:27:25;34.80;69.10
38428;DHT22;24211;49.980;19.776;2023-07-20T14:29:52;34.70;68.80
38428;DHT22;24211;49.980;19.776;2023-07-20T14:32:20;34.50;69.30
38428;DHT22;24211;49.980;19.776;2023-07-20T14:34:47;34.40;70.00
38428;DHT22;24211;49.980;19.776;2023-07-20T14:37:14;34.30;70.50
38428;DHT22;24211;49.980;19.776;2023-07-20T14:39:41;34.20;70.50
38428;DHT22;24211;49.980;19.776;2023-07-20T14:42:08;34.30;70.50
38428;DHT22;24211;49.980;19.776;2023-07-20T14:44:36;34.20;70.20
38428;DHT22;24211;49.980;19.776;2023-07-20T14:47:04;34.10;70.40
38428;DHT22;24211;49.980;19.776;2023-07-20T14:49:41;33.90;70.90
38428;DHT22;24211;49.980;19.776;2023-07-20T14:52:08;33.70;71.30
38428;DHT22;24211;49.980;19.776;2023-07-20T14:54:39;33.50;71.30
38428;DHT22;24211;49.980;19.776;2023-07-20T14:57:06;33.20;71.50
38428;DHT22;24211;49.980;19.776;2023-07-20T14:59:42;33.00;72.00
38428;DHT22;24211;49.980;19.776;2023-07-20T15:02:09;32.80;72.30
38428;DHT22;24211;49.980;19.776;2023-07-20T15:04:36;32.50;72.60
38428;DHT22;24211;49.980;19.776;2023-07-20T15:07:04;32.20;72.90
38428;DHT22;24211;49.980;19.776;2023-07-20T15:09:32;31.80;74.00
38428;DHT22;24211;49.980;19.776;2023-07-20T15:12:03;31.50;76.80
38428;DHT22;24211;49.980;19.776;2023-07-20T15:14:32;31.00;79.70
38428;DHT22;24211;49.980;19.776;2023-07-20T15:16:59;30.00;82.50
38428;DHT22;24211;49.980;19.776;2023-07-20T15:19:28;29.10;84.40
38428;DHT22;24211;49.980;19.776;2023-07-20T15:21:55;28.60;85.80
38428;DHT22;24211;49.980;19.776;2023-07-20T15:24:23;28.40;86.30
38428;DHT22;24211;49.980;19.776;2023-07-20T15:26:50;28.10;86.50
38428;DHT22;24211;49.980;19.776;2023-07-20T15:29:17;28.10;86.30
38428;DHT22;24211;49.980;19.776;2023-07-20T15:31:48;27.90;86.60
38428;DHT22;24211;49.980;19.776;2023-07-20T15:34:18;27.70;87.00
38428;DHT22;24211;49.980;19.776;2023-07-20T15:36:46;27.70;86.50
38428;DHT22;24211;49.980;19.776;2023-07-20T15:39:13;27.70;86.40
38428;DHT22;24211;49.980;19.776;2023-07-20T15:41:40;27.70;86.30
38428;DHT22;24211;49.980;19.776;2023-07-20T15:44:07;27.60;86.20
38428;DHT22;24211;49.980;19.776;2023-07-20T15:49:08;27.50;86.40
38428;DHT22;24211;49.980;19.776;2023-07-20T15:51:36;27.40;86.60
38428;DHT22;24211;49.980;19.776;2023-07-20T15:54:05;27.30;86.70
38428;DHT22;24211;49.980;19.776;2023-07-20T15:56:38;27.30;86.80
38428;DHT22;24211;49.980;19.776;2023-07-20T15:59:09;27.20;87.10
38428;DHT22;24211;49.980;19.776;2023-07-20T16:01:38;27.20;87.60
38428;DHT22;24211;49.980;19.776;2023-07-20T16:04:07;27.20;87.90
38428;DHT22;24211;49.980;19.776;2023-07-20T16:06:35;27.20;88.20
38428;DHT22;24211;49.980;19.776;2023-07-20T16:09:03;27.20;88.50
38428;DHT22;24211;49.980;19.776;2023-07-20T16:11:32;27.30;88.70
38428;DHT22;24211;49.980;19.776;2023-07-20T16:14:05;27.30;89.00
38428;DHT22;24211;49.980;19.776;2023-07-20T16:16:35;27.30;89.10
38428;DHT22;24211;49.980;19.776;2023-07-20T16:19:03;27.30;89.10
38428;DHT22;24211;49.980;19.776;2023-07-20T16:21:30;27.40;89.50
38428;DHT22;24211;49.980;19.776;2023-07-20T16:24:00;27.40;89.60
38428;DHT22;24211;49.980;19.776;2023-07-20T16:26:27;27.40;89.80
38428;DHT22;24211;49.980;19.776;2023-07-20T16:28:54;27.40;90.00
38428;DHT22;24211;49.980;19.776;2023-07-20T16:31:24;27.40;90.00
38428;DHT22;24211;49.980;19.776;2023-07-20T16:33:53;27.50;90.00
38428;DHT22;24211;49.980;19.776;2023-07-20T16:36:31;27.50;90.10
38428;DHT22;24211;49.980;19.776;2023-07-20T16:39:20;27.60;90.20
38428;DHT22;24211;49.980;19.776;2023-07-20T16:41:50;27.70;90.00
38428;DHT22;24211;49.980;19.776;2023-07-20T16:44:20;27.70;90.00
38428;DHT22;24211;49.980;19.776;2023-07-20T16:46:48;27.80;90.00
38428;DHT22;24211;49.980;19.776;2023-07-20T16:49:18;27.80;89.80
38428;DHT22;24211;49.980;19.776;2023-07-20T16:51:45;27.90;89.70
38428;DHT22;24211;49.980;19.776;2023-07-20T16:54:12;28.00;90.10
38428;DHT22;24211;49.980;19.776;2023-07-20T16:56:42;28.00;89.80
38428;DHT22;24211;49.980;19.776;2023-07-20T16:59:10;28.10;89.70
38428;DHT22;24211;49.980;19.776;2023-07-20T17:01:37;28.10;90.00
38428;DHT22;24211;49.980;19.776;2023-07-20T17:04:04;28.10;89.60
38428;DHT22;24211;49.980;19.776;2023-07-20T17:06:32;28.10;89.60
38428;DHT22;24211;49.980;19.776;2023-07-20T17:08:59;28.10;89.60
38428;DHT22;24211;49.980;19.776;2023-07-20T17:11:28;28.10;89.90
38428;DHT22;24211;49.980;19.776;2023-07-20T17:13:56;28.10;90.00
38428;DHT22;24211;49.980;19.776;2023-07-20T17:16:23;28.20;89.90
38428;DHT22;24211;49.980;19.776;2023-07-20T17:18:50;28.20;90.00
38428;DHT22;24211;49.980;19.776;2023-07-20T17:21:17;28.30;90.20
38428;DHT22;24211;49.980;19.776;2023-07-20T17:23:49;28.30;90.20